Time;durP1;ratioP1;P1;durP2;ratioP2;P2;SDS_P1;SDS_P2;PMS_P1;PMS_P2;Temp;Humidity;BMP_temperature;BMP_pressure;BME280_temperature;BME280_humidity;BME280_pressure;Samples;Min_cycle;Max_cycle;Signal;HPM_P1;HPM_P2
2021/03/12 00:00:15;;;;;;;13.73;0.90;;;6.50;92.10;;;;;;5013869;28;20025;-78
2021/03/12 00:02:41;;;;;;;7.32;0.77;;;6.50;92.00;;;;;;5033615;28;20029;-78
2021/03/12 00:05:09;;;;;;;11.75;1.17;;;6.50;92.00;;;;;;5033439;28;20029;-77
2021/03/12 00:07:34;;;;;;;9.82;1.23;;;6.50;91.90;;;;;;5032909;28;20037;-79
2021/03/12 00:10:00;;;;;;;9.60;0.82;;;6.50;91.70;;;;;;5029382;28;20048;-78
2021/03/12 00:12:25;;;;;;;11.85;1.75;;;6.50;91.70;;;;;;5000984;28;20022;-79
2021/03/12 00:14:51;;;;;;;16.42;1.67;;;6.60;91.70;;;;;;5030370;28;20033;-78
2021/03/12 00:17:16;;;;;;;10.50;0.93;;;6.50;91.70;;;;;;5033292;28;20025;-80
2021/03/12 00:19:42;;;;;;;10.93;1.33;;;6.50;91.70;;;;;;5033264;28;20102;-79
2021/03/12 00:22:08;;;;;;;10.05;0.77;;;6.50;91.50;;;;;;5014736;28;20076;-78
2021/03/12 00:24:34;;;;;;;10.13;1.27;;;6.60;91.40;;;;;;5032863;28;20582;-78
2021/03/12 00:26:59;;;;;;;6.78;0.60;;;6.60;91.10;;;;;;5026327;28;20140;-78
2021/03/12 00:29:26;;;;;;;7.57;1.75;;;6.60;91.10;;;;;;5010906;28;20022;-79
2021/03/12 00:31:52;;;;;;;11.60;0.90;;;6.60;90.90;;;;;;5013473;28;20488;-79
2021/03/12 00:34:17;;;;;;;14.30;1.65;;;6.60;90.90;;;;;;5021039;28;20172;-77
2021/03/12 00:36:43;;;;;;;8.90;1.02;;;6.60;90.90;;;;;;5027188;28;20037;-77
2021/03/12 00:39:08;;;;;;;11.35;0.93;;;6.60;90.90;;;;;;5025693;28;20034;-79
2021/03/12 00:41:34;;;;;;;7.28;0.50;;;6.60;90.80;;;;;;5033087;28;20048;-78
2021/03/12 00:43:59;;;;;;;8.35;0.70;;;6.60;90.70;;;;;;5015875;28;20021;-81
2021/03/12 00:46:25;;;;;;;9.35;0.93;;;6.70;90.60;;;;;;5008970;28;20120;-78
2021/03/12 00:48:50;;;;;;;7.78;0.60;;;6.60;90.50;;;;;;5032829;28;20025;-78
2021/03/12 00:51:16;;;;;;;6.65;0.60;;;6.60;90.50;;;;;;5032474;28;20364;-78
2021/03/12 00:53:42;;;;;;;13.43;1.15;;;6.60;90.40;;;;;;5032603;28;20083;-78
2021/03/12 00:56:07;;;;;;;7.70;0.60;;;6.60;90.50;;;;;;5032722;28;20030;-78
2021/03/12 00:58:33;;;;;;;10.02;1.20;;;6.60;90.40;;;;;;5032373;28;20025;-77
2021/03/12 01:00:58;;;;;;;8.80;0.90;;;6.60;90.30;;;;;;5015170;28;20032;-79
2021/03/12 01:03:24;;;;;;;9.10;0.88;;;6.60;90.30;;;;;;5032647;28;20438;-78
2021/03/12 01:05:49;;;;;;;6.85;1.25;;;6.60;90.40;;;;;;5021612;28;20026;-78
2021/03/12 01:08:15;;;;;;;11.15;0.80;;;6.60;90.30;;;;;;5030959;28;20026;-78
2021/03/12 01:10:41;;;;;;;10.45;0.60;;;6.60;90.30;;;;;;5029632;28;20376;-78
2021/03/12 01:13:07;;;;;;;7.32;0.88;;;6.60;90.30;;;;;;5014131;28;20075;-77
2021/03/12 01:15:33;;;;;;;4.88;0.50;;;6.60;90.20;;;;;;5020198;28;20441;-78
2021/03/12 01:17:59;;;;;;;9.15;1.13;;;6.60;90.20;;;;;;5032420;28;20116;-78
2021/03/12 01:20:31;;;;;;;13.27;0.82;;;6.60;90.30;;;;;;5013830;28;20494;-79
2021/03/12 01:22:58;;;;;;;8.85;1.30;;;6.60;90.30;;;;;;5026013;28;20044;-78
2021/03/12 01:25:26;;;;;;;7.93;0.90;;;6.60;90.30;;;;;;5025710;28;20105;-78
2021/03/12 01:27:52;;;;;;;14.30;0.90;;;6.50;90.30;;;;;;5031710;28;20140;-79
2021/03/12 01:30:33;;;;;;;7.78;1.33;;;6.50;90.40;;;;;;5032561;28;20053;-78
2021/03/12 01:32:59;;;;;;;10.70;1.65;;;6.50;90.40;;;;;;5032813;28;20419;-79
2021/03/12 01:35:24;;;;;;;11.27;0.80;;;6.50;90.40;;;;;;5023609;28;20045;-81
2021/03/12 01:37:50;;;;;;;7.60;0.80;;;6.50;90.40;;;;;;5027321;28;20083;-79
2021/03/12 01:40:18;;;;;;;11.52;0.90;;;6.50;90.40;;;;;;5031873;28;20029;-78
2021/03/12 01:42:44;;;;;;;12.40;1.02;;;6.50;90.40;;;;;;5032405;28;20029;-78
2021/03/12 01:45:13;;;;;;;8.73;1.20;;;6.50;90.40;;;;;;5031936;28;20035;-78
2021/03/12 01:47:40;;;;;;;8.90;1.50;;;6.50;90.30;;;;;;5031826;28;20491;-79
2021/03/12 01:50:06;;;;;;;6.97;1.30;;;6.50;90.30;;;;;;5032677;28;20029;-79
2021/03/12 01:52:33;;;;;;;11.30;1.02;;;6.50;90.20;;;;;;5032875;28;20037;-79
2021/03/12 01:54:59;;;;;;;9.23;1.05;;;6.50;90.10;;;;;;5015513;28;20093;-79
2021/03/12 01:57:25;;;;;;;12.35;1.30;;;6.50;90.20;;;;;;5025375;28;20480;-79
2021/03/12 01:59:51;;;;;;;9.27;0.55;;;6.50;90.10;;;;;;5014810;28;20083;-78
2021/03/12 02:02:16;;;;;;;11.38;1.20;;;6.50;90.00;;;;;;5019799;28;20034;-78
2021/03/12 02:04:42;;;;;;;10.43;0.82;;;6.50;90.00;;;;;;5031475;28;20398;-78
2021/03/12 02:07:08;;;;;;;12.77;1.92;;;6.50;89.70;;;;;;5020797;28;20430;-80
2021/03/12 02:09:34;;;;;;;10.52;0.90;;;6.50;89.60;;;;;;5000634;28;20026;-79
2021/03/12 02:12:08;;;;;;;12.27;0.60;;;6.50;89.50;;;;;;5031371;28;20032;-82
2021/03/12 02:14:51;;;;;;;14.05;1.00;;;6.50;89.30;;;;;;5022431;28;20022;-78
2021/03/12 02:17:25;;;;;;;12.60;0.80;;;6.50;89.30;;;;;;5017880;28;20053;-79
2021/03/12 02:20:26;;;;;;;13.85;0.90;;;6.50;89.30;;;;;;5030900;28;20040;-78
2021/03/12 02:23:03;;;;;;;9.52;0.60;;;6.50;89.30;;;;;;5035624;28;20021;-79
2021/03/12 02:25:29;;;;;;;8.57;0.90;;;6.50;89.20;;;;;;5020405;28;20040;-78
2021/03/12 02:27:56;;;;;;;13.98;1.88;;;6.50;89.20;;;;;;5020928;28;20053;-79
2021/03/12 02:30:21;;;;;;;11.20;0.70;;;6.50;88.90;;;;;;5034710;28;20073;-79
2021/03/12 02:32:49;;;;;;;10.02;0.75;;;6.50;89.00;;;;;;5032630;28;20610;-80
2021/03/12 02:35:18;;;;;;;16.50;1.77;;;6.40;88.90;;;;;;5031483;28;20022;-79
2021/03/12 02:37:45;;;;;;;11.90;1.40;;;6.40;88.90;;;;;;5017545;28;20033;-79
2021/03/12 02:40:12;;;;;;;12.68;1.83;;;6.40;88.90;;;;;;5032100;28;20026;-78
2021/03/12 02:42:41;;;;;;;10.65;1.40;;;6.30;88.80;;;;;;5004852;28;20029;-79
2021/03/12 02:45:09;;;;;;;12.20;1.02;;;6.30;88.90;;;;;;5035069;28;20032;-79
2021/03/12 02:47:37;;;;;;;8.73;0.90;;;6.30;89.10;;;;;;5034351;28;20034;-81
2021/03/12 02:50:04;;;;;;;12.48;0.77;;;6.30;89.30;;;;;;5017574;28;20030;-79
2021/03/12 02:52:30;;;;;;;13.43;1.65;;;6.30;89.40;;;;;;5034586;28;20472;-78
2021/03/12 02:54:56;;;;;;;20.45;1.70;;;6.20;89.50;;;;;;5034617;28;20028;-77
2021/03/12 02:57:23;;;;;;;9.25;0.90;;;6.20;89.60;;;;;;5034595;28;20056;-80
2021/03/12 02:59:52;;;;;;;10.18;0.90;;;6.30;89.80;;;;;;5034789;28;20017;-80
2021/03/12 03:02:22;;;;;;;10.77;1.00;;;6.30;89.90;;;;;;5032178;28;20033;-79
2021/03/12 03:04:48;;;;;;;11.93;0.75;;;6.30;90.00;;;;;;5010844;28;20026;-79
2021/03/12 03:07:15;;;;;;;8.65;0.82;;;6.20;90.00;;;;;;5034039;28;20086;-79
2021/03/12 03:09:43;;;;;;;16.13;1.35;;;6.30;89.90;;;;;;5034769;28;20022;-79
2021/03/12 03:12:15;;;;;;;17.98;1.35;;;6.20;89.80;;;;;;5023272;28;20037;-80
2021/03/12 03:14:42;;;;;;;9.25;0.95;;;6.20;89.80;;;;;;5010726;28;20022;-79
2021/03/12 03:17:10;;;;;;;7.22;0.70;;;6.20;89.80;;;;;;5027477;28;20501;-79
2021/03/12 03:19:39;;;;;;;9.10;0.80;;;6.30;89.90;;;;;;5027061;28;20108;-80
2021/03/12 03:22:06;;;;;;;10.68;1.00;;;6.20;89.80;;;;;;5034245;28;20045;-79
2021/03/12 03:24:32;;;;;;;8.45;0.73;;;6.20;89.60;;;;;;5029902;28;20124;-80
2021/03/12 03:26:58;;;;;;;12.02;0.88;;;6.10;89.40;;;;;;5009250;28;20092;-80
2021/03/12 03:29:23;;;;;;;14.23;0.98;;;6.10;89.50;;;;;;5034509;28;20030;-79
2021/03/12 03:31:49;;;;;;;11.13;0.73;;;6.00;89.70;;;;;;5031991;28;20491;-79
2021/03/12 03:34:15;;;;;;;8.38;0.73;;;5.90;89.80;;;;;;5025971;28;20049;-79
2021/03/12 03:36:41;;;;;;;12.63;1.23;;;5.80;90.00;;;;;;5019198;28;20030;-79
2021/03/12 03:39:07;;;;;;;6.57;1.00;;;5.70;90.00;;;;;;5034243;28;20029;-79
2021/03/12 03:41:39;;;;;;;11.88;0.70;;;5.60;90.10;;;;;;5034040;28;20025;-78
2021/03/12 03:44:05;;;;;;;13.27;0.90;;;5.60;90.20;;;;;;5031369;28;20033;-79
2021/03/12 03:46:30;;;;;;;8.73;0.73;;;5.60;90.30;;;;;;5033848;28;20052;-80
2021/03/12 03:48:57;;;;;;;10.52;1.15;;;5.50;90.30;;;;;;5021060;28;20507;-79
2021/03/12 03:51:22;;;;;;;7.88;0.52;;;5.50;90.40;;;;;;5031326;28;20038;-79
2021/03/12 03:53:49;;;;;;;11.40;0.73;;;5.40;90.40;;;;;;5028401;28;20033;-79
2021/03/12 03:56:16;;;;;;;7.68;0.50;;;5.40;90.50;;;;;;5033747;28;20494;-78
2021/03/12 03:58:43;;;;;;;13.00;0.82;;;5.40;90.50;;;;;;5033316;28;20483;-78
2021/03/12 04:01:09;;;;;;;17.42;1.55;;;5.30;90.60;;;;;;5025328;28;20137;-79
2021/03/12 04:03:35;;;;;;;11.75;1.35;;;5.30;90.60;;;;;;5033596;28;20483;-80
2021/03/12 04:06:02;;;;;;;11.57;0.80;;;5.30;90.70;;;;;;5023466;28;20036;-79
2021/03/12 04:08:30;;;;;;;10.73;0.90;;;5.30;90.70;;;;;;5025495;28;20033;-78
2021/03/12 04:10:57;;;;;;;7.40;0.60;;;5.30;90.70;;;;;;5033585;28;20032;-78
2021/03/12 04:13:23;;;;;;;10.48;0.65;;;5.20;90.80;;;;;;5029869;28;20026;-79
2021/03/12 04:15:48;;;;;;;9.50;0.68;;;5.20;90.90;;;;;;5024316;28;20089;-79
2021/03/12 04:18:14;;;;;;;11.20;0.70;;;5.20;91.00;;;;;;5032470;28;20100;-78
2021/03/12 04:20:41;;;;;;;12.98;0.70;;;5.10;91.00;;;;;;5022070;28;20495;-79
2021/03/12 04:23:07;;;;;;;13.02;0.93;;;5.10;91.10;;;;;;5022296;28;20036;-79
2021/03/12 04:25:33;;;;;;;11.35;0.80;;;5.10;91.10;;;;;;5027568;28;20034;-78
2021/03/12 04:28:00;;;;;;;14.88;0.75;;;5.10;91.50;;;;;;5020212;28;20491;-77
2021/03/12 04:30:26;;;;;;;7.82;0.70;;;5.10;91.30;;;;;;5032748;28;20506;-78
2021/03/12 04:32:52;;;;;;;8.98;0.70;;;5.00;91.30;;;;;;5028563;28;20026;-78
2021/03/12 04:35:18;;;;;;;14.57;1.73;;;5.00;91.30;;;;;;5031353;28;20026;-79
2021/03/12 04:37:43;;;;;;;8.98;1.50;;;5.00;91.40;;;;;;5031953;28;20033;-79
2021/03/12 04:40:10;;;;;;;10.52;1.17;;;5.00;91.40;;;;;;5033233;28;20021;-79
2021/03/12 04:42:37;;;;;;;9.05;0.95;;;5.00;91.40;;;;;;5004592;28;20427;-79
2021/03/12 04:45:05;;;;;;;13.82;0.80;;;5.00;91.40;;;;;;5029507;28;20100;-80
2021/03/12 04:47:31;;;;;;;10.50;1.80;;;5.00;91.40;;;;;;5027510;28;20026;-79
2021/03/12 04:49:56;;;;;;;10.05;0.80;;;4.90;91.40;;;;;;5033283;28;20026;-78
2021/03/12 04:52:22;;;;;;;16.08;1.15;;;4.90;91.50;;;;;;5019778;28;20484;-78
2021/03/12 04:54:48;;;;;;;11.38;0.75;;;4.90;91.50;;;;;;5032435;28;20044;-79
2021/03/12 04:57:17;;;;;;;17.63;2.30;;;4.90;91.50;;;;;;5024526;28;20112;-79
2021/03/12 04:59:43;;;;;;;11.20;0.82;;;4.90;91.50;;;;;;5024757;28;20030;-79
2021/03/12 05:02:10;;;;;;;9.02;1.08;;;4.80;91.60;;;;;;5030037;28;20368;-78
2021/03/12 05:04:37;;;;;;;6.97;0.88;;;4.80;91.60;;;;;;5032265;28;20038;-79
2021/03/12 05:07:03;;;;;;;13.13;1.00;;;4.80;91.60;;;;;;5031712;28;20132;-78
2021/03/12 05:09:28;;;;;;;8.27;1.23;;;4.80;91.70;;;;;;5025799;28;20053;-78
2021/03/12 05:11:54;;;;;;;11.50;1.35;;;4.90;91.70;;;;;;5021543;28;20068;-78
2021/03/12 05:14:19;;;;;;;11.88;1.08;;;4.80;91.70;;;;;;5015951;28;20392;-78
2021/03/12 05:16:45;;;;;;;14.98;2.00;;;4.80;91.70;;;;;;5031091;28;20041;-77
2021/03/12 05:19:11;;;;;;;14.82;1.92;;;4.80;91.70;;;;;;5032163;28;20475;-77
2021/03/12 05:21:36;;;;;;;17.40;1.38;;;4.80;91.70;;;;;;5021464;28;20049;-76
2021/03/12 05:24:02;;;;;;;14.82;0.85;;;4.80;92.00;;;;;;5025096;28;20037;-76
2021/03/12 05:26:28;;;;;;;12.57;3.08;;;4.80;91.70;;;;;;5032547;28;20033;-75
2021/03/12 05:28:53;;;;;;;14.68;1.25;;;4.80;91.70;;;;;;5025261;28;20499;-76
2021/03/12 05:31:21;;;;;;;17.23;1.55;;;4.70;91.70;;;;;;5025128;28;20076;-76
2021/03/12 05:33:47;;;;;;;11.07;1.75;;;4.70;91.70;;;;;;5036272;28;20053;-76
2021/03/12 05:36:13;;;;;;;9.07;1.05;;;4.70;91.70;;;;;;5035518;28;20021;-77
2021/03/12 05:38:38;;;;;;;7.72;0.73;;;4.70;91.70;;;;;;5033164;28;20379;-76
2021/03/12 05:41:04;;;;;;;12.80;1.58;;;4.70;91.80;;;;;;5034440;28;20033;-75
2021/03/12 05:43:30;;;;;;;12.77;1.48;;;4.70;91.80;;;;;;5028125;28;20458;-76
2021/03/12 05:45:59;;;;;;;20.63;2.30;;;4.70;91.70;;;;;;5036320;28;20105;-76
2021/03/12 05:48:25;;;;;;;13.45;1.40;;;4.70;91.70;;;;;;5029238;28;20493;-76
2021/03/12 05:50:51;;;;;;;9.75;1.52;;;4.70;91.80;;;;;;5031220;28;20108;-76
2021/03/12 05:53:18;;;;;;;12.02;1.33;;;4.70;91.80;;;;;;5035964;28;20017;-77
2021/03/12 05:55:43;;;;;;;12.23;2.20;;;4.60;91.80;;;;;;5017732;28;20562;-77
2021/03/12 05:58:09;;;;;;;9.88;1.10;;;4.60;91.80;;;;;;5035951;28;20128;-76
2021/03/12 06:00:35;;;;;;;11.93;1.50;;;4.70;91.90;;;;;;5023000;28;20049;-76
2021/03/12 06:03:01;;;;;;;12.77;1.42;;;4.70;91.90;;;;;;5016467;28;20488;-77
2021/03/12 06:05:28;;;;;;;15.30;1.52;;;4.70;91.80;;;;;;5034368;28;20036;-76
2021/03/12 06:07:54;;;;;;;13.52;2.15;;;4.70;91.80;;;;;;5033097;28;20391;-76
2021/03/12 06:10:19;;;;;;;12.82;1.50;;;4.70;91.80;;;;;;5030358;28;20031;-76
2021/03/12 06:12:49;;;;;;;11.55;1.60;;;4.70;91.80;;;;;;5031756;28;20026;-76
2021/03/12 06:15:15;;;;;;;18.95;1.80;;;4.70;91.80;;;;;;5013534;28;20025;-76
2021/03/12 06:17:44;;;;;;;12.45;2.40;;;4.70;91.70;;;;;;5035120;28;20030;-77
2021/03/12 06:20:19;;;;;;;17.45;1.70;;;4.70;91.70;;;;;;5032229;28;20120;-77
2021/03/12 06:22:56;;;;;;;8.68;1.40;;;4.70;91.70;;;;;;5035223;28;20036;-77
2021/03/12 06:25:23;;;;;;;15.65;1.83;;;4.70;91.70;;;;;;5032329;28;20029;-77
2021/03/12 06:27:50;;;;;;;13.57;1.55;;;4.70;91.70;;;;;;5022714;28;20534;-77
2021/03/12 06:30:17;;;;;;;12.35;1.10;;;4.70;91.70;;;;;;5033205;28;20047;-77
2021/03/12 06:32:51;;;;;;;12.05;1.15;;;4.80;91.70;;;;;;5032798;28;20037;-78
2021/03/12 06:35:25;;;;;;;15.00;1.10;;;4.80;91.60;;;;;;5024647;28;20025;-77
2021/03/12 06:37:53;;;;;;;16.77;2.00;;;4.80;91.60;;;;;;5021478;28;20440;-76
2021/03/12 06:40:26;;;;;;;17.40;1.90;;;4.80;91.60;;;;;;5025208;28;20022;-77
2021/03/12 06:43:11;;;;;;;16.23;1.88;;;4.80;91.60;;;;;;5035026;28;20120;-77
2021/03/12 06:45:58;;;;;;;11.98;1.10;;;4.80;91.60;;;;;;5034461;28;20026;-76
2021/03/12 06:48:32;;;;;;;16.48;2.25;;;4.80;91.50;;;;;;5018238;28;20088;-77
2021/03/12 06:51:02;;;;;;;11.75;1.17;;;4.80;91.50;;;;;;5030709;28;20024;-77
2021/03/12 06:53:31;;;;;;;13.98;1.40;;;4.80;91.50;;;;;;5007122;28;20021;-77
2021/03/12 06:56:05;;;;;;;15.40;1.30;;;4.80;91.50;;;;;;5030246;28;20029;-77
2021/03/12 06:58:32;;;;;;;20.63;1.58;;;4.80;91.60;;;;;;5033295;28;20032;-76
2021/03/12 07:00:58;;;;;;;16.90;1.15;;;4.90;91.60;;;;;;5034412;28;20022;-77
2021/03/12 07:03:27;;;;;;;14.52;1.92;;;4.90;91.60;;;;;;5033966;28;20055;-76
2021/03/12 07:06:05;;;;;;;15.23;1.17;;;4.90;91.50;;;;;;5022525;28;20075;-77
2021/03/12 07:08:35;;;;;;;20.23;2.75;;;4.90;91.50;;;;;;5025967;28;20480;-77
2021/03/12 07:11:01;;;;;;;11.93;1.25;;;5.00;91.60;;;;;;5028597;28;20036;-79
2021/03/12 07:13:27;;;;;;;12.20;1.00;;;5.00;91.60;;;;;;5020219;28;20476;-78
2021/03/12 07:15:55;;;;;;;15.65;2.03;;;5.00;91.60;;;;;;5034624;28;20033;-76
2021/03/12 07:18:25;;;;;;;10.25;0.90;;;5.10;91.50;;;;;;5022006;28;20049;-76
2021/03/12 07:20:51;;;;;;;15.05;1.50;;;5.20;91.50;;;;;;5029312;28;20475;-76
2021/03/12 07:23:20;;;;;;;12.48;1.52;;;5.30;91.40;;;;;;5025526;28;20064;-78
2021/03/12 07:25:46;;;;;;;10.57;1.55;;;5.40;91.40;;;;;;5029079;28;20021;-79
2021/03/12 07:28:14;;;;;;;14.90;2.78;;;5.50;91.20;;;;;;5021471;28;20503;-79
2021/03/12 07:30:45;;;;;;;16.20;1.60;;;5.60;91.10;;;;;;5006917;28;20081;-79
2021/03/12 07:33:13;;;;;;;14.40;1.30;;;5.60;91.00;;;;;;5014885;28;20021;-80
2021/03/12 07:35:40;;;;;;;14.23;2.08;;;5.70;90.90;;;;;;5032222;28;20017;-78
2021/03/12 07:38:10;;;;;;;11.27;0.90;;;5.80;91.10;;;;;;5028023;28;20021;-77
2021/03/12 07:40:35;;;;;;;16.73;0.95;;;5.90;90.80;;;;;;5032401;28;20430;-77
2021/03/12 07:43:02;;;;;;;19.83;1.77;;;5.90;90.60;;;;;;5028765;28;20156;-76
2021/03/12 07:45:28;;;;;;;10.63;1.60;;;6.00;90.80;;;;;;5031190;28;20037;-78
2021/03/12 07:47:54;;;;;;;17.38;2.33;;;6.00;90.40;;;;;;5026012;28;20033;-79
2021/03/12 07:50:24;;;;;;;12.50;1.38;;;6.00;90.40;;;;;;5020245;28;20028;-79
2021/03/12 07:52:51;;;;;;;21.02;1.50;;;6.10;90.30;;;;;;5031719;28;20030;-77
2021/03/12 07:55:35;;;;;;;16.35;1.75;;;6.10;90.30;;;;;;5013875;28;20105;-78
2021/03/12 07:58:01;;;;;;;28.65;2.63;;;6.20;90.20;;;;;;5003331;28;20026;-78
2021/03/12 08:00:26;;;;;;;19.92;1.70;;;6.20;90.20;;;;;;5017426;28;20040;-78
2021/03/12 08:02:56;;;;;;;12.82;1.50;;;6.20;90.10;;;;;;5029363;28;20490;-79
2021/03/12 08:05:40;;;;;;;20.05;1.48;;;6.20;90.10;;;;;;5032466;28;20033;-78
2021/03/12 08:08:36;;;;;;;18.13;1.73;;;6.30;90.10;;;;;;5018405;28;20476;-77
2021/03/12 08:11:24;;;;;;;18.70;2.00;;;6.40;89.90;;;;;;5010024;28;20034;-77
2021/03/12 08:13:51;;;;;;;22.33;1.85;;;6.50;89.90;;;;;;5008501;28;20095;-79
2021/03/12 08:16:17;;;;;;;17.80;1.65;;;6.60;89.80;;;;;;5014706;28;20025;-77
2021/03/12 08:18:43;;;;;;;14.65;1.25;;;6.60;89.20;;;;;;5026108;28;20461;-79
2021/03/12 08:21:31;;;;;;;15.25;1.85;;;6.70;89.20;;;;;;5022939;28;20108;-79
2021/03/12 08:24:01;;;;;;;21.85;1.77;;;6.80;88.90;;;;;;5031250;28;20060;-79
2021/03/12 08:26:47;;;;;;;19.40;1.30;;;6.80;88.80;;;;;;5009298;28;20071;-79
2021/03/12 08:29:36;;;;;;;19.00;1.50;;;6.90;88.30;;;;;;5026828;28;20052;-79
2021/03/12 08:32:23;;;;;;;19.58;2.53;;;7.00;88.40;;;;;;5027683;28;20641;-79
2021/03/12 08:34:48;;;;;;;9.40;0.98;;;7.00;88.10;;;;;;5023920;28;20037;-77
2021/03/12 08:37:26;;;;;;;20.02;2.10;;;7.00;87.90;;;;;;4996164;28;20033;-76
2021/03/12 08:40:13;;;;;;;25.13;2.30;;;7.10;87.80;;;;;;5007844;28;20088;-75
2021/03/12 08:42:55;;;;;;;15.68;1.70;;;7.10;87.60;;;;;;5021425;28;20025;-79
2021/03/12 08:45:43;;;;;;;20.47;1.77;;;7.20;87.50;;;;;;5005327;28;20561;-76
2021/03/12 08:48:15;;;;;;;24.60;1.85;;;7.30;87.40;;;;;;5028451;28;20475;-78
2021/03/12 08:50:57;;;;;;;19.10;1.63;;;7.40;87.90;;;;;;5010817;28;20033;-78
2021/03/12 08:53:32;;;;;;;26.10;3.28;;;7.60;87.70;;;;;;5012696;28;20021;-79
2021/03/12 08:55:59;;;;;;;17.42;2.55;;;7.80;86.90;;;;;;5013252;28;20026;-79
2021/03/12 08:58:38;;;;;;;20.35;3.33;;;7.70;86.40;;;;;;5025538;28;20368;-79
2021/03/12 09:01:13;;;;;;;18.23;1.77;;;7.70;86.40;;;;;;5027977;28;20382;-81
2021/03/12 09:03:42;;;;;;;21.25;1.88;;;7.70;86.90;;;;;;5015829;28;20056;-79
2021/03/12 09:06:12;;;;;;;18.48;2.10;;;7.80;86.90;;;;;;5026650;28;20403;-80
2021/03/12 09:08:40;;;;;;;15.32;1.75;;;7.90;87.00;;;;;;5022536;28;20522;-78
2021/03/12 09:11:09;;;;;;;19.92;2.22;;;8.00;86.10;;;;;;5012373;28;20022;-80
2021/03/12 09:13:39;;;;;;;18.88;2.20;;;8.00;85.80;;;;;;5021383;28;20103;-79
2021/03/12 09:16:06;;;;;;;21.48;2.00;;;8.20;85.40;;;;;;5024444;28;20021;-78
2021/03/12 09:18:33;;;;;;;23.10;2.28;;;8.30;85.00;;;;;;5027327;28;20030;-78
2021/03/12 09:21:01;;;;;;;11.55;1.50;;;8.50;84.50;;;;;;5026220;28;20064;-78
2021/03/12 09:23:50;;;;;;;20.17;2.00;;;8.60;83.90;;;;;;5029876;28;20029;-83
2021/03/12 09:26:18;;;;;;;18.90;2.17;;;8.80;83.40;;;;;;5019539;28;20034;-78
2021/03/12 09:28:46;;;;;;;18.95;1.75;;;9.00;83.10;;;;;;5016228;28;20045;-77
2021/03/12 09:31:14;;;;;;;20.65;2.78;;;9.10;81.90;;;;;;5028494;28;20541;-79
2021/03/12 09:33:43;;;;;;;18.42;1.98;;;9.20;81.80;;;;;;5022057;28;20049;-77
2021/03/12 09:36:38;;;;;;;19.95;1.92;;;9.30;81.20;;;;;;5008199;28;20033;-79
2021/03/12 09:39:23;;;;;;;22.75;3.65;;;9.40;80.40;;;;;;5032431;28;20038;-78
2021/03/12 09:41:56;;;;;;;16.88;2.92;;;9.50;80.50;;;;;;5026082;28;20033;-77
2021/03/12 09:44:24;;;;;;;19.55;2.30;;;9.60;80.10;;;;;;5020450;28;20631;-78
2021/03/12 09:46:52;;;;;;;10.38;1.65;;;9.60;78.50;;;;;;5033043;28;20033;-78
2021/03/12 09:49:23;;;;;;;17.85;2.60;;;9.60;78.20;;;;;;5007329;28;20045;-78
2021/03/12 09:51:55;;;;;;;15.13;1.58;;;9.50;78.30;;;;;;5022660;28;20025;-78
2021/03/12 09:54:22;;;;;;;11.02;1.23;;;9.30;78.70;;;;;;5028871;28;20028;-78
2021/03/12 09:56:53;;;;;;;11.55;1.60;;;9.20;78.20;;;;;;5028072;28;20024;-80
2021/03/12 09:59:24;;;;;;;28.50;2.42;;;9.20;79.00;;;;;;5033699;28;20044;-77
2021/03/12 10:01:50;;;;;;;20.90;1.80;;;9.30;79.40;;;;;;5025006;28;20021;-78
2021/03/12 10:04:28;;;;;;;16.50;1.95;;;9.40;79.10;;;;;;5032017;28;20112;-79
2021/03/12 10:07:11;;;;;;;12.80;1.85;;;9.50;79.00;;;;;;5027705;28;20024;-78
2021/03/12 10:09:53;;;;;;;10.63;1.70;;;9.70;78.40;;;;;;5032021;28;20510;-78
2021/03/12 10:12:29;;;;;;;12.67;1.47;;;9.70;76.70;;;;;;5023390;28;20052;-79
2021/03/12 10:15:11;;;;;;;16.33;1.35;;;9.60;76.70;;;;;;5018139;28;20468;-80
2021/03/12 10:17:38;;;;;;;18.83;1.65;;;9.50;77.30;;;;;;5033464;28;20022;-77
2021/03/12 10:20:04;;;;;;;13.27;1.50;;;9.40;76.90;;;;;;5036176;28;20530;-80
2021/03/12 10:22:31;;;;;;;15.88;2.53;;;9.20;77.60;;;;;;5026754;28;20026;-79
2021/03/12 10:24:59;;;;;;;11.93;1.52;;;9.20;78.50;;;;;;5013886;28;20030;-77
2021/03/12 10:27:29;;;;;;;18.02;1.85;;;9.10;78.40;;;;;;5030417;28;20053;-79
2021/03/12 10:29:55;;;;;;;17.73;1.90;;;8.90;78.80;;;;;;5013509;28;20440;-78
2021/03/12 10:32:21;;;;;;;16.27;1.40;;;8.80;79.90;;;;;;5024599;28;20101;-82
2021/03/12 10:34:57;;;;;;;21.85;1.60;;;8.80;80.20;;;;;;5029986;28;20030;-77
2021/03/12 10:37:30;;;;;;;18.17;2.78;;;8.80;80.70;;;;;;5043562;28;20037;-79
2021/03/12 10:39:56;;;;;;;15.18;1.92;;;8.70;81.30;;;;;;5034591;28;20022;-78
2021/03/12 10:42:29;;;;;;;13.00;1.38;;;8.70;81.70;;;;;;5021965;28;20116;-77
2021/03/12 10:45:00;;;;;;;15.95;1.58;;;8.70;82.30;;;;;;5021637;28;20022;-76
2021/03/12 10:47:27;;;;;;;13.65;1.30;;;8.60;82.60;;;;;;5034677;28;20498;-77
2021/03/12 10:49:53;;;;;;;16.20;1.30;;;8.50;82.20;;;;;;5024309;28;20424;-78
2021/03/12 10:52:29;;;;;;;20.15;1.83;;;8.40;82.70;;;;;;5007082;28;20024;-79
2021/03/12 10:55:06;;;;;;;17.02;2.08;;;8.30;83.60;;;;;;4998563;28;20018;-76
2021/03/12 10:57:37;;;;;;;11.45;1.35;;;8.20;84.50;;;;;;5015521;28;20032;-78
2021/03/12 11:00:07;;;;;;;18.38;1.92;;;8.10;85.40;;;;;;5021769;28;20029;-77
2021/03/12 11:02:34;;;;;;;16.80;1.83;;;8.20;85.50;;;;;;4990748;28;20148;-77
2021/03/12 11:05:04;;;;;;;13.90;1.75;;;8.10;85.30;;;;;;5007990;28;20033;-76
2021/03/12 11:07:32;;;;;;;17.08;1.73;;;8.10;85.50;;;;;;5022342;28;20030;-81
2021/03/12 11:10:01;;;;;;;21.88;3.42;;;8.10;86.10;;;;;;5026197;28;20025;-78
2021/03/12 11:12:55;;;;;;;14.05;1.67;;;8.10;85.90;;;;;;5012922;28;20116;-77
2021/03/12 11:15:21;;;;;;;13.63;1.73;;;8.10;86.10;;;;;;5007662;28;20057;-79
2021/03/12 11:17:48;;;;;;;20.60;2.75;;;8.20;86.30;;;;;;5027767;28;20064;-76
2021/03/12 11:20:17;;;;;;;15.07;1.70;;;8.20;86.20;;;;;;5028542;28;20101;-77
2021/03/12 11:22:43;;;;;;;20.00;2.80;;;8.30;86.00;;;;;;5025192;28;20104;-75
2021/03/12 11:25:09;;;;;;;18.17;2.03;;;8.40;85.90;;;;;;5027734;28;20057;-76
2021/03/12 11:27:35;;;;;;;14.57;2.08;;;8.60;85.60;;;;;;5025929;28;20110;-77
2021/03/12 11:30:09;;;;;;;17.70;2.45;;;8.80;85.50;;;;;;5033272;28;20029;-77
2021/03/12 11:32:35;;;;;;;19.52;2.33;;;9.00;84.80;;;;;;5027346;28;20037;-78
2021/03/12 11:35:01;;;;;;;12.55;1.60;;;9.10;84.20;;;;;;5024320;28;20053;-77
2021/03/12 11:37:26;;;;;;;16.05;1.60;;;9.30;83.40;;;;;;5023224;28;20099;-77
2021/03/12 11:39:52;;;;;;;14.95;1.77;;;9.40;82.30;;;;;;5013541;28;20033;-78
2021/03/12 11:42:18;;;;;;;14.07;2.35;;;9.50;81.10;;;;;;5031309;28;20513;-77
2021/03/12 11:44:43;;;;;;;13.38;2.38;;;9.60;79.80;;;;;;5021048;28;20045;-79
2021/03/12 11:47:10;;;;;;;10.05;1.30;;;9.70;79.60;;;;;;5028347;28;20387;-79
2021/03/12 11:49:36;;;;;;;12.77;1.50;;;9.70;78.70;;;;;;5027546;28;20029;-79
2021/03/12 11:52:03;;;;;;;14.52;2.53;;;9.70;78.20;;;;;;5025564;28;20025;-80
2021/03/12 11:54:29;;;;;;;12.95;1.38;;;9.80;78.20;;;;;;5017483;28;20383;-78
2021/03/12 11:56:55;;;;;;;12.52;1.92;;;9.90;77.00;;;;;;5022860;28;20021;-77
2021/03/12 11:59:20;;;;;;;9.68;1.00;;;9.90;76.80;;;;;;4992536;28;20025;-78
2021/03/12 12:01:47;;;;;;;16.27;1.23;;;10.00;76.70;;;;;;5021121;28;20025;-78
2021/03/12 12:04:13;;;;;;;12.55;1.42;;;10.00;76.10;;;;;;5022552;28;20029;-78
2021/03/12 12:06:38;;;;;;;10.57;1.42;;;10.00;75.30;;;;;;4998186;28;20072;-78
2021/03/12 12:09:04;;;;;;;10.10;1.38;;;10.00;76.00;;;;;;5022047;28;20482;-78
2021/03/12 12:11:30;;;;;;;14.05;1.35;;;10.00;76.00;;;;;;5021536;28;20021;-79
2021/03/12 12:13:56;;;;;;;10.00;1.85;;;10.00;76.00;;;;;;5029162;28;20487;-78
2021/03/12 12:16:22;;;;;;;12.20;1.20;;;9.90;75.60;;;;;;5028973;28;20029;-78
2021/03/12 12:18:47;;;;;;;9.90;1.42;;;9.90;76.30;;;;;;5026016;28;20029;-78
2021/03/12 12:21:13;;;;;;;14.98;1.80;;;9.90;75.90;;;;;;5028784;28;20111;-79
2021/03/12 12:23:38;;;;;;;14.00;1.00;;;9.90;76.00;;;;;;5011749;28;20033;-78
2021/03/12 12:26:04;;;;;;;13.45;2.05;;;10.00;75.60;;;;;;5020159;28;20022;-78
2021/03/12 12:28:30;;;;;;;11.23;1.08;;;9.90;75.30;;;;;;5027984;28;20507;-80
2021/03/12 12:30:56;;;;;;;8.68;1.27;;;9.80;75.00;;;;;;5007007;28;20407;-78
2021/03/12 12:33:21;;;;;;;8.70;1.10;;;9.70;75.30;;;;;;5026597;28;20125;-78
2021/03/12 12:35:47;;;;;;;10.20;0.75;;;9.60;75.20;;;;;;5029222;28;20029;-79
2021/03/12 12:38:12;;;;;;;8.52;0.98;;;9.50;75.50;;;;;;5025166;28;20038;-79
2021/03/12 12:40:38;;;;;;;7.72;0.70;;;9.40;76.20;;;;;;5024353;28;20430;-76
2021/03/12 12:43:04;;;;;;;13.85;0.90;;;9.30;77.60;;;;;;5011176;28;20018;-77
2021/03/12 12:45:30;;;;;;;12.18;1.10;;;9.20;77.80;;;;;;5026373;28;20033;-78
2021/03/12 12:47:56;;;;;;;14.35;1.27;;;9.20;79.00;;;;;;5025622;28;20041;-76
2021/03/12 12:50:22;;;;;;;10.02;0.90;;;9.40;79.00;;;;;;5022491;28;20030;-77
2021/03/12 12:52:47;;;;;;;16.70;1.95;;;9.50;78.90;;;;;;5031878;28;20018;-79
2021/03/12 12:55:14;;;;;;;10.68;0.77;;;9.60;78.00;;;;;;5024997;28;20069;-78